Decoded Metar for MMTG (TUXTLA GUTIERREZ in MEXICO) (IATA:TGZ) | Meteo·Mobile Aviation Weather
aviador You're here:

MMTG Decoded Metar

TUXTLA GUTIERREZ in MEXICO
Report Time2018-11-19 21:47:00
UTC Time2018-11-19 22:20:07
Flight Rules vfr VFR
Wind320° at 13 kt
W.Decomp.*RWY 32: 13.0 kt HW 0.7 kt LCW
W.Rank320° ranks 2
Current wind is above 320° avg. (9.0)
Visibility9999 m
Phenomena:N/A
Clouds:N/A
Expected CloudBase > 3,200 ft AGL from Temp-Dew spread
CeilingNone
Temp28°C (ISA +16)
Dew Point20°C (62% RH)
Heat Index29.7°C
AAT27.0°C
QNH1014 hPa
Density Alt3,901 ft
Elevation1,732 ft
Report Wrong Elevation
Raw Report
METAR MMTG 192147Z 32013KT 10SM SKC 28/20 A2993 RMK ISOLD TCU DSNT=

Extra information for MMTG:More info

Metar Taf Metar & Taf Last 4 Metars F.Rules Stats Wind Profile Meteogram Temp Stats Airport Information Weather charts Add Link Nearby VenuesMetar ALERT Operation Metar Decoded Social comments